F/V Jimorhan — FGD5815 — position and weather

sailwx.info

Track history (hours):
 
Tides and Currents Weather Stations Pressure Air Temp Water Temp Dewpoint Dewpoint Depression Visibility Wind Speed Wind Dir Waves Ship Positions

F/V Jimorhan

Last reported at 2018-Jun-24 22:03 UTC. Time now 2018-Jun-25 00:42 UTC.
Position N 47°45' W 003°36'.

Length 19 m.

Type: Fishing. MMSI: 227573440.

Date/timePositionNaut miles runAvg speedWind from/ knotsBaromVisibWave heightAir tempDewpointWater temp
2018-Jun-24 22:03N 47°45' W 003°36'111.3
2018-Jun-24 22:00N 47°45' W 003°36'2 3.5
2018-Jun-24 21:25N 47°45' W 003°32'2 4.7
2018-Jun-24 21:00N 47°45' W 003°35'4 9.1
2018-Jun-24 20:30N 47°42' W 003°30'3 6.4
2018-Jun-24 20:00N 47°41' W 003°26'4 8.5
2018-Jun-24 19:30N 47°43' W 003°31'2 2.7
2018-Jun-24 18:56N 47°44' W 003°33'2 4.9
2018-Jun-24 18:30N 47°42' W 003°31'2 3.4
2018-Jun-24 17:59N 47°43' W 003°33'  
2018-Jun-21 22:16N 47°44' W 003°38'310.2
2018-Jun-21 22:00N 47°43' W 003°34'5 9.7
2018-Jun-21 21:30N 47°42' W 003°27'0 0.9
2018-Jun-21 21:00N 47°42' W 003°27'1 2.6
2018-Jun-21 20:30N 47°42' W 003°28'0 0.5
2018-Jun-21 20:00N 47°42' W 003°29'0 0.5
2018-Jun-21 19:30N 47°42' W 003°29'1 1.5
2018-Jun-21 19:00N 47°41' W 003°28'1 2.0
2018-Jun-21 18:30N 47°41' W 003°27'0 0.9
2018-Jun-21 18:00N 47°41' W 003°26'5 8.8
2018-Jun-21 17:24N 47°43' W 003°33'51 2.8
2018-Jun-20 23:25N 48°01' W 004°44'410.4
2018-Jun-20 23:00N 48°05' W 004°45'510.3
2018-Jun-20 22:30N 48°10' W 004°44'7 9.7
2018-Jun-20 21:48N 48°08' W 004°34'10 9.1
2018-Jun-20 20:43N 48°06' W 004°19'0 0.0
2018-Jun-20 03:30N 48°06' W 004°19'4 7.3
2018-Jun-20 02:58N 48°07' W 004°25'5 9.7
2018-Jun-20 02:29N 48°08' W 004°32'4 9.3
2018-Jun-20 02:00N 48°09' W 004°38'4 7.4
2018-Jun-20 01:30N 48°10' W 004°44'0 0.2
2018-Jun-20 01:01N 48°10' W 004°44'1 2.0
2018-Jun-20 00:31N 48°09' W 004°42'1 1.2
2018-Jun-20 00:00N 48°08' W 004°42'1 1.2
2018-Jun-19 23:30N 48°09' W 004°42'510.2
2018-Jun-19 23:01N 48°12' W 004°37'4 7.1
2018-Jun-19 22:27N 48°09' W 004°33'5 9.6
2018-Jun-19 21:58N 48°12' W 004°28'7 0.4
2018-Jun-19 05:04N 48°07' W 004°21'110.8
2018-Jun-19 04:59N 48°07' W 004°22'510.8
2018-Jun-19 04:30N 48°07' W 004°30'4 6.3
2018-Jun-19 03:54N 48°08' W 004°36'2 3.5
2018-Jun-19 03:27N 48°08' W 004°34'4 3.9
2018-Jun-19 02:20N 48°06' W 004°39'  
Track history (hours):
 
Tides and Currents Weather Stations Pressure Air Temp Water Temp Dewpoint Dewpoint Depression Visibility Wind Speed Wind Dir Waves Ship Positions

F/V Jimorhan

Last reported at 2018-Jun-24 22:03 UTC. Time now 2018-Jun-25 00:42 UTC.
Position N 47°45' W 003°36'.

Length 19 m.

Type: Fishing. MMSI: 227573440.

Date/timePositionNaut miles runAvg speedWind from/ knotsBaromVisibWave heightAir tempDewpointWater temp
2018-Jun-24 22:03N 47°45' W 003°36'111.3
2018-Jun-24 22:00N 47°45' W 003°36'2 3.5
2018-Jun-24 21:25N 47°45' W 003°32'2 4.7
2018-Jun-24 21:00N 47°45' W 003°35'4 9.1
2018-Jun-24 20:30N 47°42' W 003°30'3 6.4
2018-Jun-24 20:00N 47°41' W 003°26'4 8.5
2018-Jun-24 19:30N 47°43' W 003°31'2 2.7
2018-Jun-24 18:56N 47°44' W 003°33'2 4.9
2018-Jun-24 18:30N 47°42' W 003°31'2 3.4
2018-Jun-24 17:59N 47°43' W 003°33'  
2018-Jun-21 22:16N 47°44' W 003°38'310.2
2018-Jun-21 22:00N 47°43' W 003°34'5 9.7
2018-Jun-21 21:30N 47°42' W 003°27'0 0.9
2018-Jun-21 21:00N 47°42' W 003°27'1 2.6
2018-Jun-21 20:30N 47°42' W 003°28'0 0.5
2018-Jun-21 20:00N 47°42' W 003°29'0 0.5
2018-Jun-21 19:30N 47°42' W 003°29'1 1.5
2018-Jun-21 19:00N 47°41' W 003°28'1 2.0
2018-Jun-21 18:30N 47°41' W 003°27'0 0.9
2018-Jun-21 18:00N 47°41' W 003°26'5 8.8
2018-Jun-21 17:24N 47°43' W 003°33'51 2.8
2018-Jun-20 23:25N 48°01' W 004°44'410.4
2018-Jun-20 23:00N 48°05' W 004°45'510.3
2018-Jun-20 22:30N 48°10' W 004°44'7 9.7
2018-Jun-20 21:48N 48°08' W 004°34'10 9.1
2018-Jun-20 20:43N 48°06' W 004°19'0 0.0
2018-Jun-20 03:30N 48°06' W 004°19'4 7.3
2018-Jun-20 02:58N 48°07' W 004°25'5 9.7
2018-Jun-20 02:29N 48°08' W 004°32'4 9.3
2018-Jun-20 02:00N 48°09' W 004°38'4 7.4
2018-Jun-20 01:30N 48°10' W 004°44'0 0.2
2018-Jun-20 01:01N 48°10' W 004°44'1 2.0
2018-Jun-20 00:31N 48°09' W 004°42'1 1.2
2018-Jun-20 00:00N 48°08' W 004°42'1 1.2
2018-Jun-19 23:30N 48°09' W 004°42'510.2
2018-Jun-19 23:01N 48°12' W 004°37'4 7.1
2018-Jun-19 22:27N 48°09' W 004°33'5 9.6
2018-Jun-19 21:58N 48°12' W 004°28'7 0.4
2018-Jun-19 05:04N 48°07' W 004°21'110.8
2018-Jun-19 04:59N 48°07' W 004°22'510.8
2018-Jun-19 04:30N 48°07' W 004°30'4 6.3
2018-Jun-19 03:54N 48°08' W 004°36'2 3.5
2018-Jun-19 03:27N 48°08' W 004°34'4 3.9
2018-Jun-19 02:20N 48°06' W 004°39'  

Dump ship's entire track history